Time,TemperatureF,DewpointF,PressureIn,WindDirection,WindDirectionDegrees,WindSpeedMPH,WindSpeedGustMPH,Humidity,HourlyPrecipIn,Conditions,Clouds,dailyrainin,SoftwareType,DateUTC
2013-10-17 00:01:00,61.3,59.9,29.90,South,180,0.0,0.0,95,0.00,BKN,,0.00,WeatherDisplay:10.37,2013-10-17 04:01:00,
2013-10-17 00:02:00,61.3,59.9,29.90,SSW,202,0.0,0.0,95,0.00,OVC,,0.00,WeatherDisplay:10.37,2013-10-17 04:02:00,
2013-10-17 00:07:00,61.3,59.9,29.90,SSE,158,0.0,0.0,95,0.00,OVC,,0.00,WeatherDisplay:10.37,2013-10-17 04:07:00,
2013-10-17 00:12:00,61.3,59.9,29.90,SE,135,0.0,0.0,95,0.00,OVC,,0.00,WeatherDisplay:10.37,2013-10-17 04:12:00,
2013-10-17 00:17:00,61.3,59.9,29.89,SSE,158,2.7,2.7,95,0.00,OVC,,0.00,WeatherDisplay:10.37,2013-10-17 04:17:00,
2013-10-17 00:22:00,61.3,60.2,29.89,South,180,2.3,2.3,96,0.00,OVC,,0.00,WeatherDisplay:10.37,2013-10-17 04:22:00,
2013-10-17 00:27:00,61.3,60.2,29.89,South,180,3.5,3.5,96,0.00,OVC,,0.00,WeatherDisplay:10.37,2013-10-17 04:27:00,
2013-10-17 00:32:00,61.3,60.2,29.89,SW,225,2.3,2.3,96,0.00,OVC,,0.00,WeatherDisplay:10.37,2013-10-17 04:32:00,
2013-10-17 00:37:00,61.5,60.3,29.88,NNW,338,1.2,0.0,96,0.00,OVC,,0.00,WeatherDisplay:10.37,2013-10-17 04:37:00,
2013-10-17 00:42:00,61.5,60.3,29.88,NE,45,0.0,0.0,96,0.00,OVC,,0.00,WeatherDisplay:10.37,2013-10-17 04:42:00,
2013-10-17 00:47:00,61.3,60.2,29.88,North,360,0.0,0.0,96,0.00,OVC,,0.00,WeatherDisplay:10.37,2013-10-17 04:47:00,
2013-10-17 00:52:00,61.3,60.2,29.88,ENE,68,0.0,0.0,96,0.00,OVC,,0.00,WeatherDisplay:10.37,2013-10-17 04:52:00,
2013-10-17 00:57:00,61.2,60.1,29.88,NNE,22,0.0,0.0,96,0.00,OVC,,0.00,WeatherDisplay:10.37,2013-10-17 04:57:00,
2013-10-17 01:02:00,61.0,59.9,29.89,NNE,22,0.0,0.0,96,0.00,FEW,,0.00,WeatherDisplay:10.37,2013-10-17 05:02:00,
2013-10-17 01:07:00,61.0,59.9,29.89,NNE,22,0.0,0.0,96,0.00,FEW,,0.00,WeatherDisplay:10.37,2013-10-17 05:07:00,
2013-10-17 01:12:00,61.0,59.9,29.89,North,360,0.0,0.0,96,0.00,FEW,,0.00,WeatherDisplay:10.37,2013-10-17 05:12:00,
2013-10-17 01:17:00,60.8,59.7,29.88,NNE,22,0.0,0.0,96,0.00,FEW,,0.00,WeatherDisplay:10.37,2013-10-17 05:17:00,
2013-10-17 01:22:00,60.8,59.7,29.88,NE,45,0.0,0.0,96,0.00,FEW,,0.00,WeatherDisplay:10.37,2013-10-17 05:22:00,
2013-10-17 01:27:00,60.8,59.7,29.88,ENE,68,0.0,0.0,96,0.00,FEW,,0.00,WeatherDisplay:10.37,2013-10-17 05:27:00,
2013-10-17 01:32:00,60.8,59.7,29.88,SSW,202,0.0,0.0,96,0.00,FEW,,0.00,WeatherDisplay:10.37,2013-10-17 05:32:00,
2013-10-17 01:37:00,60.8,59.7,29.88,SSE,158,0.0,0.0,96,0.00,BKN,,0.00,WeatherDisplay:10.37,2013-10-17 05:37:00,
2013-10-17 01:42:00,60.8,59.7,29.88,ENE,68,0.0,0.0,96,0.00,BKN,,0.00,WeatherDisplay:10.37,2013-10-17 05:42:00,
2013-10-17 01:47:00,60.8,59.7,29.88,SSE,158,0.0,0.0,96,0.00,BKN,,0.00,WeatherDisplay:10.37,2013-10-17 05:47:00,
2013-10-17 01:52:00,60.6,59.5,29.88,West,270,0.0,0.0,96,0.00,BKN,,0.00,WeatherDisplay:10.37,2013-10-17 05:52:00,
2013-10-17 01:57:00,60.4,59.3,29.88,North,360,0.0,0.0,96,0.00,BKN,,0.00,WeatherDisplay:10.37,2013-10-17 05:57:00,
2013-10-17 02:02:00,60.3,59.2,29.88,WNW,292,0.0,0.0,96,0.00,OVC,,0.00,WeatherDisplay:10.37,2013-10-17 06:02:00,
2013-10-17 02:07:00,60.3,59.2,29.88,NNW,338,0.0,0.0,96,0.00,OVC,,0.00,WeatherDisplay:10.37,2013-10-17 06:07:00,
2013-10-17 02:12:00,60.3,59.2,29.88,NE,45,0.0,0.0,96,0.00,OVC,,0.00,WeatherDisplay:10.37,2013-10-17 06:12:00,
2013-10-17 02:17:00,60.3,59.4,29.88,NNW,338,0.0,0.0,97,0.00,OVC,,0.00,WeatherDisplay:10.37,2013-10-17 06:17:00,
2013-10-17 02:22:00,60.3,59.4,29.88,NNE,22,0.0,0.0,97,0.00,OVC,,0.00,WeatherDisplay:10.37,2013-10-17 06:22:00,
2013-10-17 02:27:00,60.3,59.4,29.88,SSE,158,0.0,0.0,97,0.00,OVC,,0.00,WeatherDisplay:10.37,2013-10-17 06:27:00,
2013-10-17 02:32:00,60.3,59.4,29.88,SSW,202,0.0,0.0,97,0.00,OVC,,0.00,WeatherDisplay:10.37,2013-10-17 06:32:00,
2013-10-17 02:37:00,60.3,59.4,29.88,SSW,202,0.0,0.0,97,0.00,OVC,,0.00,WeatherDisplay:10.37,2013-10-17 06:37:00,
2013-10-17 02:42:00,60.3,59.4,29.88,SW,225,0.0,0.0,97,0.00,OVC,,0.00,WeatherDisplay:10.37,2013-10-17 06:42:00,
2013-10-17 02:47:00,60.3,59.4,29.88,NW,315,0.0,0.0,97,0.00,OVC,,0.00,WeatherDisplay:10.37,2013-10-17 06:47:00,
2013-10-17 02:52:00,60.3,59.4,29.87,NW,315,0.0,0.0,97,0.00,OVC,,0.00,WeatherDisplay:10.37,2013-10-17 06:52:00,
2013-10-17 02:57:00,60.3,59.4,29.87,ENE,68,0.0,0.0,97,0.00,OVC,,0.00,WeatherDisplay:10.37,2013-10-17 06:57:00,
2013-10-17 03:02:00,60.3,59.4,29.87,West,270,0.0,0.0,97,0.00,OVC,,0.00,WeatherDisplay:10.37,2013-10-17 07:02:00,
2013-10-17 03:07:00,60.3,59.4,29.87,SSW,202,0.0,0.0,97,0.00,OVC,,0.00,WeatherDisplay:10.37,2013-10-17 07:07:00,
2013-10-17 03:12:00,60.3,59.4,29.87,North,360,0.0,0.0,97,0.00,OVC,,0.00,WeatherDisplay:10.37,2013-10-17 07:12:00,
2013-10-17 03:17:00,60.3,59.4,29.87,East,90,0.0,0.0,97,0.00,OVC,,0.00,WeatherDisplay:10.37,2013-10-17 07:17:00,
2013-10-17 03:22:00,60.3,59.4,29.87,SSE,158,0.0,0.0,97,0.00,OVC,,0.00,WeatherDisplay:10.37,2013-10-17 07:22:00,
2013-10-17 03:27:00,60.3,59.4,29.86,SW,225,0.0,0.0,97,0.00,OVC,,0.00,WeatherDisplay:10.37,2013-10-17 07:27:00,
2013-10-17 03:32:00,60.3,59.4,29.86,ENE,68,0.0,0.0,97,0.00,OVC,,0.00,WeatherDisplay:10.37,2013-10-17 07:32:00,
2013-10-17 03:37:00,60.3,59.4,29.86,North,360,0.0,0.0,97,0.00,OVC,,0.00,WeatherDisplay:10.37,2013-10-17 07:37:00,
2013-10-17 03:42:00,60.1,59.2,29.86,ENE,68,0.0,0.0,97,0.00,OVC,,0.00,WeatherDisplay:10.37,2013-10-17 07:42:00,
2013-10-17 03:47:00,59.9,59.0,29.86,NNE,22,0.0,0.0,97,0.00,OVC,,0.00,WeatherDisplay:10.37,2013-10-17 07:47:00,
2013-10-17 03:52:00,59.7,58.8,29.86,SW,225,0.0,0.0,97,0.00,OVC,,0.00,WeatherDisplay:10.37,2013-10-17 07:52:00,
2013-10-17 03:58:00,59.7,58.8,29.86,SW,225,0.0,0.0,97,0.00,OVC,,0.00,WeatherDisplay:10.37,2013-10-17 07:58:00,
2013-10-17 04:03:00,59.7,58.8,29.86,NNW,338,0.0,0.0,97,0.00,OVC,,0.00,WeatherDisplay:10.37,2013-10-17 08:03:00,
2013-10-17 04:08:00,59.5,58.6,29.86,NNW,338,0.0,0.0,97,0.00,OVC,,0.00,WeatherDisplay:10.37,2013-10-17 08:08:00,
2013-10-17 04:13:00,59.4,58.5,29.86,WSW,248,0.0,0.0,97,0.00,OVC,,0.00,WeatherDisplay:10.37,2013-10-17 08:13:00,
2013-10-17 04:18:00,59.0,58.2,29.86,South,180,0.0,0.0,97,0.00,OVC,,0.00,WeatherDisplay:10.37,2013-10-17 08:18:00,
2013-10-17 04:23:00,58.6,57.8,29.86,West,270,0.0,0.0,97,0.00,OVC,,0.00,WeatherDisplay:10.37,2013-10-17 08:23:00,
2013-10-17 04:28:00,58.6,57.8,29.87,SW,225,0.0,0.0,97,0.00,OVC,,0.00,WeatherDisplay:10.37,2013-10-17 08:28:00,
2013-10-17 04:33:00,58.6,57.8,29.87,SW,225,0.0,0.0,97,0.00,OVC,,0.00,WeatherDisplay:10.37,2013-10-17 08:33:00,
2013-10-17 04:38:00,58.6,57.8,29.86,SSW,202,0.0,0.0,97,0.00,OVC,,0.00,WeatherDisplay:10.37,2013-10-17 08:38:00,
2013-10-17 04:43:00,58.6,58.0,29.86,SE,135,0.0,0.0,98,0.00,OVC,,0.00,WeatherDisplay:10.37,2013-10-17 08:43:00,
2013-10-17 04:48:00,58.6,58.0,29.86,SSE,158,0.0,0.0,98,0.00,OVC,,0.00,WeatherDisplay:10.37,2013-10-17 08:48:00,
2013-10-17 04:53:00,58.6,58.0,29.87,South,180,0.0,0.0,98,0.00,OVC,,0.00,WeatherDisplay:10.37,2013-10-17 08:53:00,
2013-10-17 04:58:00,59.0,58.4,29.87,South,180,0.0,0.0,98,0.00,OVC,,0.00,WeatherDisplay:10.37,2013-10-17 08:58:00,
2013-10-17 05:03:00,58.8,58.2,29.86,ENE,68,0.0,0.0,98,0.00,OVC,,0.00,WeatherDisplay:10.37,2013-10-17 09:03:00,
2013-10-17 05:08:00,58.8,58.2,29.86,SSE,158,0.0,0.0,98,0.00,OVC,,0.00,WeatherDisplay:10.37,2013-10-17 09:08:00,
2013-10-17 05:13:00,59.2,58.6,29.86,South,180,0.0,0.0,98,0.00,OVC,,0.00,WeatherDisplay:10.37,2013-10-17 09:13:00,
2013-10-17 05:18:00,59.2,58.6,29.86,South,180,0.0,0.0,98,0.00,OVC,,0.00,WeatherDisplay:10.37,2013-10-17 09:18:00,
2013-10-17 05:23:00,59.2,58.6,29.86,WNW,292,0.0,0.0,98,0.00,OVC,,0.00,WeatherDisplay:10.37,2013-10-17 09:23:00,
2013-10-17 05:28:00,59.2,58.6,29.86,SSW,202,0.0,0.0,98,0.00,OVC,,0.00,WeatherDisplay:10.37,2013-10-17 09:28:00,
2013-10-17 05:33:00,59.0,58.4,29.86,NNE,22,0.0,0.0,98,0.00,OVC,,0.00,WeatherDisplay:10.37,2013-10-17 09:33:00,
2013-10-17 05:38:00,59.0,58.4,29.85,ENE,68,0.0,0.0,98,0.00,OVC,,0.00,WeatherDisplay:10.37,2013-10-17 09:38:00,
2013-10-17 05:43:00,59.0,58.4,29.85,NE,45,0.0,0.0,98,0.00,OVC,,0.00,WeatherDisplay:10.37,2013-10-17 09:43:00,
2013-10-17 05:48:00,59.0,58.4,29.85,North,360,0.0,0.0,98,0.00,OVC,,0.00,WeatherDisplay:10.37,2013-10-17 09:48:00,
2013-10-17 05:53:00,59.0,58.4,29.86,SSE,158,0.0,0.0,98,0.00,OVC,,0.00,WeatherDisplay:10.37,2013-10-17 09:53:00,
2013-10-17 05:58:00,59.4,58.8,29.86,West,270,0.0,0.0,98,0.00,OVC,,0.00,WeatherDisplay:10.37,2013-10-17 09:58:00,
2013-10-17 06:03:00,59.5,58.9,29.87,NE,45,0.0,0.0,98,0.00,OVC,,0.00,WeatherDisplay:10.37,2013-10-17 10:03:00,
2013-10-17 06:08:00,59.5,58.9,29.87,SW,225,0.0,0.0,98,0.00,OVC,,0.00,WeatherDisplay:10.37,2013-10-17 10:08:00,
2013-10-17 06:13:00,59.5,58.9,29.87,WNW,292,0.0,0.0,98,0.00,OVC,,0.00,WeatherDisplay:10.37,2013-10-17 10:13:00,
2013-10-17 06:18:00,59.7,59.1,29.87,South,180,0.0,0.0,98,0.00,OVC,,0.00,WeatherDisplay:10.37,2013-10-17 10:18:00,
2013-10-17 06:23:00,59.7,59.1,29.87,NW,315,0.0,0.0,98,0.00,OVC,,0.00,WeatherDisplay:10.37,2013-10-17 10:23:00,
2013-10-17 06:28:00,59.9,59.3,29.87,NW,315,0.0,0.0,98,0.00,OVC,,0.00,WeatherDisplay:10.37,2013-10-17 10:28:00,
2013-10-17 06:33:00,59.9,59.3,29.87,ESE,112,0.0,0.0,98,0.00,OVC,,0.00,WeatherDisplay:10.37,2013-10-17 10:33:00,
2013-10-17 06:38:00,60.1,59.5,29.87,South,180,0.0,0.0,98,0.00,OVC,,0.00,WeatherDisplay:10.37,2013-10-17 10:38:00,
2013-10-17 06:43:00,60.1,59.5,29.87,ESE,112,0.0,0.0,98,0.00,OVC,,0.00,WeatherDisplay:10.37,2013-10-17 10:43:00,
2013-10-17 06:48:00,60.1,59.5,29.87,ENE,68,0.0,0.0,98,0.00,OVC,,0.00,WeatherDisplay:10.37,2013-10-17 10:48:00,
2013-10-17 06:53:00,60.1,59.5,29.88,West,270,0.0,0.0,98,0.00,OVC,,0.00,WeatherDisplay:10.37,2013-10-17 10:53:00,
2013-10-17 06:58:00,60.3,59.7,29.88,West,270,0.0,0.0,98,0.00,OVC,,0.00,WeatherDisplay:10.37,2013-10-17 10:58:00,
2013-10-17 07:03:00,60.4,59.8,29.88,WNW,292,0.0,0.0,98,0.00,OVC,,0.00,WeatherDisplay:10.37,2013-10-17 11:03:00,
2013-10-17 07:08:00,60.4,59.8,29.88,West,270,0.0,0.0,98,0.00,OVC,,0.00,WeatherDisplay:10.37,2013-10-17 11:08:00,
2013-10-17 07:13:00,60.6,60.0,29.88,South,180,0.0,0.0,98,0.00,OVC,,0.00,WeatherDisplay:10.37,2013-10-17 11:13:00,
2013-10-17 07:18:00,60.6,60.0,29.88,NNW,338,0.0,0.0,98,0.00,OVC,,0.00,WeatherDisplay:10.37,2013-10-17 11:18:00,
2013-10-17 07:23:00,60.6,60.0,29.88,NNW,338,0.0,0.0,98,0.00,OVC,,0.00,WeatherDisplay:10.37,2013-10-17 11:23:00,
2013-10-17 07:28:00,60.6,60.0,29.89,ESE,112,0.0,0.0,98,0.00,OVC,,0.00,WeatherDisplay:10.37,2013-10-17 11:28:00,
2013-10-17 07:33:00,60.8,60.2,29.89,SSW,202,0.0,0.0,98,0.00,OVC,,0.00,WeatherDisplay:10.37,2013-10-17 11:33:00,
2013-10-17 07:38:00,60.8,60.2,29.88,ESE,112,0.0,0.0,98,0.00,OVC,,0.00,WeatherDisplay:10.37,2013-10-17 11:38:00,
2013-10-17 07:43:00,60.8,60.2,29.88,South,180,0.0,0.0,98,0.00,OVC,,0.00,WeatherDisplay:10.37,2013-10-17 11:43:00,
2013-10-17 07:48:00,60.8,60.2,29.88,NNW,338,0.0,0.0,98,0.00,OVC,,0.00,WeatherDisplay:10.37,2013-10-17 11:48:00,
2013-10-17 07:53:00,60.8,60.2,29.88,WNW,292,0.0,0.0,98,0.00,OVC,,0.00,WeatherDisplay:10.37,2013-10-17 11:53:00,
2013-10-17 07:58:00,60.8,60.2,29.88,ESE,112,0.0,0.0,98,0.00,OVC,,0.00,WeatherDisplay:10.37,2013-10-17 11:58:00,
2013-10-17 08:03:00,60.8,60.2,29.88,North,360,0.0,0.0,98,0.00,OVC,,0.00,WeatherDisplay:10.37,2013-10-17 12:03:00,
2013-10-17 08:09:00,60.8,60.2,29.88,West,270,0.0,0.0,98,0.00,OVC,,0.00,WeatherDisplay:10.37,2013-10-17 12:09:00,
2013-10-17 08:14:00,60.8,60.2,29.89,West,270,0.0,0.0,98,0.00,OVC,,0.00,WeatherDisplay:10.37,2013-10-17 12:14:00,
2013-10-17 08:19:00,60.8,60.2,29.89,South,180,0.0,0.0,98,0.00,OVC,,0.00,WeatherDisplay:10.37,2013-10-17 12:19:00,
2013-10-17 08:24:00,61.0,60.4,29.89,SSE,158,0.0,0.0,98,0.00,OVC,,0.00,WeatherDisplay:10.37,2013-10-17 12:24:00,
2013-10-17 08:29:00,61.2,60.6,29.89,NW,315,0.0,0.0,98,0.00,OVC,,0.00,WeatherDisplay:10.37,2013-10-17 12:29:00,
2013-10-17 08:34:00,61.3,60.7,29.89,ENE,68,0.0,0.0,98,0.00,OVC,,0.00,WeatherDisplay:10.37,2013-10-17 12:34:00,
2013-10-17 08:39:00,61.3,60.7,29.90,West,270,0.0,0.0,98,0.00,OVC,,0.00,WeatherDisplay:10.37,2013-10-17 12:39:00,
2013-10-17 08:44:00,61.7,61.1,29.90,NW,315,0.0,0.0,98,0.00,OVC,,0.00,WeatherDisplay:10.37,2013-10-17 12:44:00,
2013-10-17 08:49:00,62.1,61.5,29.90,NW,315,0.0,0.0,98,0.00,OVC,,0.00,WeatherDisplay:10.37,2013-10-17 12:49:00,
2013-10-17 08:54:00,62.6,62.0,29.90,South,180,0.0,0.0,98,0.00,OVC,,0.00,WeatherDisplay:10.37,2013-10-17 12:54:00,
2013-10-17 08:59:00,62.8,62.2,29.90,SW,225,0.0,0.0,98,0.00,OVC,,0.00,WeatherDisplay:10.37,2013-10-17 12:59:00,
2013-10-17 09:04:00,63.0,62.4,29.90,WNW,292,0.0,0.0,98,0.00,OVC,,0.00,WeatherDisplay:10.37,2013-10-17 13:04:00,
2013-10-17 09:09:00,63.0,62.4,29.90,SSW,202,0.0,0.0,98,0.00,OVC,,0.00,WeatherDisplay:10.37,2013-10-17 13:09:00,
2013-10-17 09:14:00,63.3,62.7,29.90,SSW,202,0.0,0.0,98,0.00,OVC,,0.00,WeatherDisplay:10.37,2013-10-17 13:14:00,
2013-10-17 09:19:00,63.7,63.1,29.90,West,270,0.0,0.0,98,0.00,OVC,,0.00,WeatherDisplay:10.37,2013-10-17 13:19:00,
2013-10-17 09:24:00,63.9,63.3,29.90,NNE,22,0.0,0.0,98,0.00,OVC,,0.00,WeatherDisplay:10.37,2013-10-17 13:24:00,
2013-10-17 09:29:00,64.0,63.1,29.90,South,180,0.0,0.0,97,0.00,OVC,,0.00,WeatherDisplay:10.37,2013-10-17 13:29:00,
2013-10-17 09:34:00,64.4,63.5,29.90,NNW,338,3.2,3.2,97,0.00,OVC,,0.00,WeatherDisplay:10.37,2013-10-17 13:34:00,
2013-10-17 09:39:00,64.2,62.4,29.89,WSW,248,2.3,2.3,94,0.00,OVC,,0.00,WeatherDisplay:10.37,2013-10-17 13:39:00,
2013-10-17 09:44:00,64.9,63.1,29.89,NNW,338,1.2,1.2,94,0.00,OVC,,0.00,WeatherDisplay:10.37,2013-10-17 13:44:00,
2013-10-17 09:49:00,65.5,63.7,29.89,NW,315,0.0,0.0,94,0.00,OVC,,0.00,WeatherDisplay:10.37,2013-10-17 13:49:00,
2013-10-17 09:54:00,66.0,63.9,29.89,East,90,1.2,1.2,93,0.00,OVC,,0.00,WeatherDisplay:10.37,2013-10-17 13:54:00,
2013-10-17 09:59:00,66.4,64.0,29.89,ESE,112,0.0,0.0,92,0.00,OVC,,0.00,WeatherDisplay:10.37,2013-10-17 13:59:00,
2013-10-17 10:04:00,66.6,63.9,29.89,West,270,0.0,0.0,91,0.00,OVC,,0.00,WeatherDisplay:10.37,2013-10-17 14:04:00,
2013-10-17 10:09:00,67.1,64.4,29.89,North,360,2.3,2.3,91,0.00,OVC,,0.00,WeatherDisplay:10.37,2013-10-17 14:09:00,
2013-10-17 10:14:00,66.6,63.6,29.90,WSW,248,0.0,0.0,90,0.00,OVC,,0.00,WeatherDisplay:10.37,2013-10-17 14:14:00,
2013-10-17 10:19:00,67.5,64.5,29.90,ESE,112,0.0,0.0,90,0.00,OVC,,0.00,WeatherDisplay:10.37,2013-10-17 14:19:00,
2013-10-17 10:24:00,66.6,62.6,29.90,SSE,158,0.0,0.0,87,0.00,OVC,,0.00,WeatherDisplay:10.37,2013-10-17 14:24:00,
2013-10-17 10:29:00,66.4,62.7,29.90,NNE,22,0.0,0.0,88,0.00,OVC,,0.00,WeatherDisplay:10.37,2013-10-17 14:29:00,
2013-10-17 10:34:00,66.7,63.0,29.90,East,90,0.0,0.0,88,0.00,OVC,,0.00,WeatherDisplay:10.37,2013-10-17 14:34:00,
2013-10-17 10:39:00,68.2,64.5,29.89,ESE,112,0.0,0.0,88,0.00,OVC,,0.00,WeatherDisplay:10.37,2013-10-17 14:39:00,
2013-10-17 10:44:00,68.7,64.7,29.89,ENE,68,0.0,0.0,87,0.00,OVC,,0.00,WeatherDisplay:10.37,2013-10-17 14:44:00,
2013-10-17 10:49:00,67.1,62.8,29.89,NNW,338,0.0,0.0,86,0.00,OVC,,0.00,WeatherDisplay:10.37,2013-10-17 14:49:00,
2013-10-17 10:54:00,67.1,62.8,29.89,South,180,1.7,1.7,86,0.00,OVC,,0.00,WeatherDisplay:10.37,2013-10-17 14:54:00,
2013-10-17 10:59:00,66.9,62.6,29.89,SSE,158,2.3,2.3,86,0.00,OVC,,0.00,WeatherDisplay:10.37,2013-10-17 14:59:00,
2013-10-17 11:04:00,66.4,62.1,29.88,West,270,1.2,1.5,86,0.00,OVC,,0.00,WeatherDisplay:10.37,2013-10-17 15:04:00,
2013-10-17 11:09:00,67.3,63.0,29.88,ENE,68,1.7,1.7,86,0.00,OVC,,0.00,WeatherDisplay:10.37,2013-10-17 15:09:00,
2013-10-17 11:14:00,68.2,63.9,29.88,SE,135,1.7,1.7,86,0.00,OVC,,0.00,WeatherDisplay:10.37,2013-10-17 15:14:00,
2013-10-17 11:19:00,67.8,63.1,29.88,SE,135,1.2,1.2,85,0.00,OVC,,0.00,WeatherDisplay:10.37,2013-10-17 15:19:00,
2013-10-17 11:24:00,67.5,62.8,29.88,West,270,0.0,0.0,85,0.00,OVC,,0.00,WeatherDisplay:10.37,2013-10-17 15:24:00,
2013-10-17 11:29:00,68.2,63.5,29.88,ESE,112,1.2,1.2,85,0.00,OVC,,0.00,WeatherDisplay:10.37,2013-10-17 15:29:00,
2013-10-17 11:34:00,67.1,62.1,29.88,West,270,1.7,1.7,84,0.00,OVC,,0.00,WeatherDisplay:10.37,2013-10-17 15:34:00,
2013-10-17 11:39:00,68.9,63.9,29.88,SE,135,1.7,1.7,84,0.00,OVC,,0.00,WeatherDisplay:10.37,2013-10-17 15:39:00,
2013-10-17 11:44:00,68.5,62.8,29.88,West,270,2.3,2.3,82,0.00,OVC,,0.00,WeatherDisplay:10.37,2013-10-17 15:44:00,
2013-10-17 11:49:00,69.3,63.9,29.88,ESE,112,2.3,2.3,83,0.00,OVC,,0.00,WeatherDisplay:10.37,2013-10-17 15:49:00,
2013-10-17 11:54:00,68.4,62.3,29.88,WSW,248,2.3,2.3,81,0.00,OVC,,0.00,WeatherDisplay:10.37,2013-10-17 15:54:00,
2013-10-17 11:59:00,69.8,63.7,29.88,ESE,112,1.7,1.8,81,0.00,OVC,,0.00,WeatherDisplay:10.37,2013-10-17 15:59:00,
2013-10-17 12:04:00,69.8,64.1,29.87,SSE,158,0.0,0.0,82,0.00,OVC,,0.00,WeatherDisplay:10.37,2013-10-17 16:04:00,
2013-10-17 12:09:00,70.0,63.5,29.87,South,180,1.2,0.0,80,0.00,OVC,,0.00,WeatherDisplay:10.37,2013-10-17 16:09:00,
2013-10-17 12:14:00,68.9,62.8,29.86,SSE,158,2.3,2.3,81,0.00,OVC,,0.00,WeatherDisplay:10.37,2013-10-17 16:14:00,
2013-10-17 12:19:00,69.1,63.4,29.86,East,90,4.6,4.6,82,0.00,OVC,,0.00,WeatherDisplay:10.37,2013-10-17 16:19:00,
2013-10-17 12:24:00,68.9,63.5,29.86,NE,45,2.7,2.7,83,0.00,OVC,,0.00,WeatherDisplay:10.37,2013-10-17 16:24:00,
2013-10-17 12:29:00,69.8,64.4,29.86,SE,135,2.3,0.0,83,0.00,OVC,,0.00,WeatherDisplay:10.37,2013-10-17 16:29:00,
2013-10-17 12:34:00,69.8,64.1,29.86,South,180,3.5,3.5,82,0.00,OVC,,0.00,WeatherDisplay:10.37,2013-10-17 16:34:00,
2013-10-17 12:39:00,70.5,64.7,29.85,NE,45,2.2,2.2,82,0.00,OVC,,0.00,WeatherDisplay:10.37,2013-10-17 16:39:00,
2013-10-17 12:44:00,70.5,64.0,29.85,SSE,158,3.5,3.5,80,0.00,OVC,,0.00,WeatherDisplay:10.37,2013-10-17 16:44:00,
2013-10-17 12:49:00,70.7,64.2,29.85,WSW,248,2.2,2.2,80,0.00,OVC,,0.00,WeatherDisplay:10.37,2013-10-17 16:49:00,
2013-10-17 12:54:00,70.0,63.5,29.85,South,180,4.6,4.6,80,0.00,OVC,,0.00,WeatherDisplay:10.37,2013-10-17 16:54:00,
2013-10-17 12:59:00,70.7,64.2,29.85,ESE,112,0.0,0.0,80,0.00,OVC,,0.00,WeatherDisplay:10.37,2013-10-17 16:59:00,
2013-10-17 13:05:00,70.5,64.0,29.84,ESE,112,3.2,3.2,80,0.00,BKN,,0.00,WeatherDisplay:10.37,2013-10-17 17:05:00,
2013-10-17 13:10:00,70.0,63.9,29.84,ENE,68,2.3,2.3,81,0.00,BKN,,0.00,WeatherDisplay:10.37,2013-10-17 17:10:00,
2013-10-17 13:15:00,70.8,64.7,29.83,East,80,3.0,0.0,81,0.00,BKN,,0.00,WeatherDisplay:10.37,2013-10-17 17:15:00,
2013-10-17 13:20:00,70.9,63.7,29.82,East,90,3.5,3.5,78,0.00,BKN,,0.00,WeatherDisplay:10.37,2013-10-17 17:20:00,
2013-10-17 13:25:00,71.4,64.6,29.82,East,87,1.0,0.0,79,0.00,BKN,,0.00,WeatherDisplay:10.37,2013-10-17 17:25:00,
2013-10-17 13:30:00,71.8,64.2,29.83,East,90,1.7,1.7,77,0.00,BKN,,0.00,WeatherDisplay:10.37,2013-10-17 17:30:00,
2013-10-17 13:35:00,73.8,65.4,29.83,SW,225,1.7,1.7,75,0.00,BKN,,0.00,WeatherDisplay:10.37,2013-10-17 17:35:00,
2013-10-17 13:40:00,72.8,64.0,29.82,ESE,107,2.0,0.0,74,0.00,SCT,,0.00,WeatherDisplay:10.37,2013-10-17 17:40:00,
2013-10-17 13:45:00,73.8,65.4,29.82,ENE,68,0.0,0.0,75,0.00,SCT,,0.00,WeatherDisplay:10.37,2013-10-17 17:45:00,
2013-10-17 13:50:00,72.4,64.0,29.82,East,84,2.0,0.0,75,0.00,SCT,,0.00,WeatherDisplay:10.37,2013-10-17 17:50:00,
2013-10-17 13:55:00,72.9,64.9,29.82,ESE,111,2.0,0.0,76,0.00,SCT,,0.00,WeatherDisplay:10.37,2013-10-17 17:55:00,
2013-10-17 14:00:00,73.2,64.4,29.82,South,180,5.8,5.8,74,0.00,SCT,,0.00,WeatherDisplay:10.37,2013-10-17 18:00:00,
2013-10-17 14:05:00,73.8,65.0,29.81,West,270,0.0,0.0,74,0.00,BKN,,0.00,WeatherDisplay:10.37,2013-10-17 18:05:00,
2013-10-17 14:10:00,74.1,65.3,29.81,South,191,0.0,0.0,74,0.00,BKN,,0.00,WeatherDisplay:10.37,2013-10-17 18:10:00,
2013-10-17 14:15:00,75.0,65.8,29.80,SSE,158,0.0,0.0,73,0.00,BKN,,0.00,WeatherDisplay:10.37,2013-10-17 18:15:00,
2013-10-17 14:20:00,73.9,64.3,29.80,ENE,68,2.3,0.0,72,0.00,BKN,,0.00,WeatherDisplay:10.37,2013-10-17 18:20:00,
2013-10-17 14:25:00,74.0,64.8,29.80,East,94,2.0,0.0,73,0.00,BKN,,0.00,WeatherDisplay:10.37,2013-10-17 18:25:00,
2013-10-17 14:30:00,74.5,65.3,29.79,East,90,2.3,2.3,73,0.00,BKN,,0.00,WeatherDisplay:10.37,2013-10-17 18:30:00,
2013-10-17 14:34:00,74.1,64.9,29.79,East,90,2.3,2.3,73,0.00,BKN,,0.00,WeatherDisplay:10.37,2013-10-17 18:34:00,
2013-10-17 14:39:00,73.9,64.7,29.79,SE,135,1.2,1.2,73,0.00,OVC,,0.00,WeatherDisplay:10.37,2013-10-17 18:39:00,
2013-10-17 14:44:00,73.6,64.8,29.79,NW,315,0.0,0.0,74,0.00,OVC,,0.00,WeatherDisplay:10.37,2013-10-17 18:44:00,
2013-10-17 14:49:00,73.8,65.0,29.79,ENE,68,0.0,0.0,74,0.00,OVC,,0.00,WeatherDisplay:10.37,2013-10-17 18:49:00,
2013-10-17 14:55:00,73.8,65.0,29.79,NE,45,0.0,0.0,74,0.00,OVC,,0.00,WeatherDisplay:10.37,2013-10-17 18:55:00,
2013-10-17 15:00:00,73.7,64.9,29.79,East,92,0.0,0.0,74,0.00,OVC,,0.00,WeatherDisplay:10.37,2013-10-17 19:00:00,
2013-10-17 15:05:00,73.3,64.9,29.79,ESE,115,0.0,0.0,75,0.00,BKN,,0.00,WeatherDisplay:10.37,2013-10-17 19:05:00,
2013-10-17 15:10:00,72.5,64.1,29.79,ESE,112,0.0,0.0,75,0.00,BKN,,0.00,WeatherDisplay:10.37,2013-10-17 19:10:00,
2013-10-17 15:15:00,72.0,64.0,29.79,SSE,155,0.0,0.0,76,0.00,BKN,,0.00,WeatherDisplay:10.37,2013-10-17 19:15:00,
2013-10-17 15:20:00,71.9,63.9,29.79,SE,127,1.0,0.0,76,0.00,BKN,,0.00,WeatherDisplay:10.37,2013-10-17 19:20:00,
2013-10-17 15:25:00,71.6,64.0,29.79,ENE,68,2.3,2.3,77,0.00,BKN,,0.00,WeatherDisplay:10.37,2013-10-17 19:25:00,
2013-10-17 15:30:00,71.6,64.0,29.78,SSE,161,1.0,0.0,77,0.00,BKN,,0.00,WeatherDisplay:10.37,2013-10-17 19:30:00,
2013-10-17 15:31:00,71.6,64.4,29.78,NE,45,0.0,0.0,78,0.00,BKN,,0.00,WeatherDisplay:10.37,2013-10-17 19:31:00,
2013-10-17 15:36:00,72.0,64.8,29.78,WNW,292,1.7,1.7,78,0.00,BKN,,0.00,WeatherDisplay:10.37,2013-10-17 19:36:00,
2013-10-17 15:41:00,72.1,64.9,29.77,East,90,0.0,0.0,78,0.00,BKN,,0.00,WeatherDisplay:10.37,2013-10-17 19:41:00,
2013-10-17 15:46:00,71.8,64.6,29.77,East,90,0.0,0.0,78,0.00,BKN,,0.00,WeatherDisplay:10.37,2013-10-17 19:46:00,
2013-10-17 15:51:00,72.1,64.9,29.77,South,180,2.3,2.3,78,0.00,BKN,,0.00,WeatherDisplay:10.37,2013-10-17 19:51:00,
2013-10-17 15:56:00,71.8,64.6,29.77,SSW,202,0.0,0.0,78,0.00,BKN,,0.00,WeatherDisplay:10.37,2013-10-17 19:56:00,
2013-10-17 16:01:00,71.8,64.6,29.76,West,270,1.2,1.2,78,0.00,BKN,,0.00,WeatherDisplay:10.37,2013-10-17 20:01:00,
2013-10-17 16:06:00,72.0,64.8,29.76,ESE,112,0.0,0.0,78,0.00,OVC,,0.00,WeatherDisplay:10.37,2013-10-17 20:06:00,
2013-10-17 16:11:00,72.0,64.8,29.76,ESE,112,0.0,0.0,78,0.00,OVC,,0.00,WeatherDisplay:10.37,2013-10-17 20:11:00,
2013-10-17 16:16:00,72.0,64.8,29.75,South,180,4.6,4.6,78,0.00,OVC,,0.00,WeatherDisplay:10.37,2013-10-17 20:16:00,
2013-10-17 16:21:00,71.6,64.4,29.75,SSE,158,4.6,4.6,78,0.00,OVC,,0.00,WeatherDisplay:10.37,2013-10-17 20:21:00,
2013-10-17 16:26:00,71.2,64.4,29.76,SW,225,5.8,5.8,79,0.00,OVC,,0.00,WeatherDisplay:10.37,2013-10-17 20:26:00,
2013-10-17 16:31:00,70.9,64.4,29.76,SE,135,1.7,1.7,80,0.00,OVC,,0.00,WeatherDisplay:10.37,2013-10-17 20:31:00,
2013-10-17 16:36:00,70.7,64.6,29.76,ESE,112,0.0,0.0,81,0.00,OVC,,0.00,WeatherDisplay:10.37,2013-10-17 20:36:00,
2013-10-17 16:41:00,70.3,64.2,29.75,ESE,112,0.0,0.0,81,0.00,OVC,,0.00,WeatherDisplay:10.37,2013-10-17 20:41:00,
2013-10-17 16:46:00,70.0,63.9,29.75,South,180,0.0,0.0,81,0.00,OVC,,0.00,WeatherDisplay:10.37,2013-10-17 20:46:00,
2013-10-17 16:51:00,69.6,63.9,29.75,NE,45,0.0,0.0,82,0.00,OVC,,0.00,WeatherDisplay:10.37,2013-10-17 20:51:00,
2013-10-17 16:56:00,69.3,63.9,29.75,ENE,68,0.0,0.0,83,0.00,OVC,,0.00,WeatherDisplay:10.37,2013-10-17 20:56:00,
2013-10-17 17:01:00,69.3,64.3,29.75,SE,135,0.0,0.0,84,0.00,OVC,,0.00,WeatherDisplay:10.37,2013-10-17 21:01:00,
2013-10-17 17:06:00,69.1,64.4,29.74,ESE,112,0.0,0.0,85,0.00,OVC,,0.00,WeatherDisplay:10.37,2013-10-17 21:06:00,
2013-10-17 17:11:00,68.7,64.0,29.74,NNW,338,0.0,0.0,85,0.00,OVC,,0.00,WeatherDisplay:10.37,2013-10-17 21:11:00,
2013-10-17 17:16:00,68.2,63.9,29.73,NNE,22,0.0,0.0,86,0.00,OVC,,0.00,WeatherDisplay:10.37,2013-10-17 21:16:00,
2013-10-17 17:21:00,68.2,64.2,29.73,NE,45,0.0,0.0,87,0.00,OVC,,0.00,WeatherDisplay:10.37,2013-10-17 21:21:00,
2013-10-17 17:26:00,67.8,64.1,29.73,ESE,112,0.0,0.0,88,0.00,OVC,,0.00,WeatherDisplay:10.37,2013-10-17 21:26:00,
2013-10-17 17:31:00,67.8,64.1,29.73,ENE,68,1.7,1.7,88,0.00,OVC,,0.00,WeatherDisplay:10.37,2013-10-17 21:31:00,
2013-10-17 17:36:00,67.8,64.1,29.73,ESE,112,0.0,0.0,88,0.01,RA,,0.01,WeatherDisplay:10.37,2013-10-17 21:36:00,
2013-10-17 17:41:00,67.6,64.2,29.73,NNE,22,0.0,0.0,89,0.01,RA,,0.01,WeatherDisplay:10.37,2013-10-17 21:41:00,
2013-10-17 17:46:00,67.6,64.2,29.73,SE,135,0.0,0.0,89,0.01,OVC,,0.01,WeatherDisplay:10.37,2013-10-17 21:46:00,
2013-10-17 17:51:00,67.6,64.2,29.73,SSE,158,0.0,0.0,89,0.01,OVC,,0.01,WeatherDisplay:10.37,2013-10-17 21:51:00,
2013-10-17 17:56:00,67.5,64.1,29.73,SSE,158,5.8,5.8,89,0.01,OVC,,0.01,WeatherDisplay:10.37,2013-10-17 21:56:00,
2013-10-17 18:01:00,67.3,63.9,29.73,SSE,158,1.7,1.7,89,0.01,OVC,,0.01,WeatherDisplay:10.37,2013-10-17 22:01:00,
2013-10-17 18:06:00,67.1,63.7,29.73,NE,45,2.3,0.0,89,0.01,-RA,,0.01,WeatherDisplay:10.37,2013-10-17 22:06:00,
2013-10-17 18:11:00,66.9,63.6,29.73,NE,45,2.2,2.2,89,0.01,-RA,,0.01,WeatherDisplay:10.37,2013-10-17 22:11:00,
2013-10-17 18:16:00,66.6,63.6,29.72,East,90,3.5,3.5,90,0.01,-RA,,0.01,WeatherDisplay:10.37,2013-10-17 22:16:00,
2013-10-17 18:21:00,66.4,63.4,29.72,ESE,112,2.3,2.3,90,0.01,-RA,,0.01,WeatherDisplay:10.37,2013-10-17 22:21:00,
2013-10-17 18:26:00,66.2,63.2,29.71,SE,135,3.5,3.5,90,0.01,-RA,,0.01,WeatherDisplay:10.37,2013-10-17 22:26:00,
2013-10-17 18:31:00,66.2,63.2,29.71,SW,225,6.9,6.9,90,0.01,-RA,,0.01,WeatherDisplay:10.37,2013-10-17 22:31:00,
2013-10-17 18:36:00,66.2,63.2,29.71,West,270,4.6,4.6,90,0.00,-RA,,0.01,WeatherDisplay:10.37,2013-10-17 22:36:00,
2013-10-17 18:41:00,66.2,63.2,29.71,SSE,158,3.7,3.7,90,0.00,-RA,,0.01,WeatherDisplay:10.37,2013-10-17 22:41:00,
2013-10-17 18:46:00,66.0,63.0,29.71,WSW,248,1.7,1.7,90,0.00,-RA,,0.01,WeatherDisplay:10.37,2013-10-17 22:46:00,
2013-10-17 18:51:00,65.8,62.8,29.70,South,180,3.5,3.5,90,0.00,-RA,,0.01,WeatherDisplay:10.37,2013-10-17 22:51:00,
2013-10-17 18:56:00,65.8,63.1,29.70,SSW,202,2.3,2.3,91,0.00,-RA,,0.01,WeatherDisplay:10.37,2013-10-17 22:56:00,
2013-10-17 19:01:00,65.7,63.0,29.70,West,270,2.7,2.7,91,0.00,-RA,,0.01,WeatherDisplay:10.37,2013-10-17 23:01:00,
2013-10-17 19:06:00,65.5,62.8,29.70,SSW,202,2.7,2.7,91,0.00,OVC,,0.01,WeatherDisplay:10.37,2013-10-17 23:06:00,
2013-10-17 19:11:00,65.5,63.1,29.70,SSW,202,4.6,4.6,92,0.00,OVC,,0.01,WeatherDisplay:10.37,2013-10-17 23:11:00,
2013-10-17 19:16:00,65.3,62.9,29.70,SSE,158,2.3,2.3,92,0.00,OVC,,0.01,WeatherDisplay:10.37,2013-10-17 23:16:00,
2013-10-17 19:21:00,65.5,63.1,29.70,SSE,158,4.2,4.2,92,0.00,OVC,,0.01,WeatherDisplay:10.37,2013-10-17 23:21:00,
2013-10-17 19:26:00,65.5,63.1,29.71,ESE,112,4.6,4.6,92,0.00,OVC,,0.01,WeatherDisplay:10.37,2013-10-17 23:26:00,
2013-10-17 19:31:00,65.7,63.6,29.71,SSE,158,8.8,8.8,93,0.00,OVC,,0.01,WeatherDisplay:10.37,2013-10-17 23:31:00,
2013-10-17 19:36:00,65.7,63.6,29.71,SE,135,4.6,4.6,93,0.00,OVC,,0.01,WeatherDisplay:10.37,2013-10-17 23:36:00,
2013-10-17 19:41:00,65.7,63.6,29.71,East,90,3.5,0.0,93,0.00,OVC,,0.01,WeatherDisplay:10.37,2013-10-17 23:41:00,
2013-10-17 19:46:00,65.7,63.6,29.71,SW,225,5.8,5.8,93,0.00,OVC,,0.01,WeatherDisplay:10.37,2013-10-17 23:46:00,
2013-10-17 19:51:00,65.7,63.6,29.71,NNE,22,4.2,4.2,93,0.00,OVC,,0.01,WeatherDisplay:10.37,2013-10-17 23:51:00,
2013-10-17 19:56:00,65.7,63.6,29.71,NE,45,4.6,4.6,93,0.00,OVC,,0.01,WeatherDisplay:10.37,2013-10-17 23:56:00,
2013-10-17 20:02:00,65.5,63.4,29.70,NE,45,2.2,0.0,93,0.00,OVC,,0.01,WeatherDisplay:10.37,2013-10-18 00:02:00,
2013-10-17 20:07:00,65.5,63.4,29.70,SW,225,2.3,2.3,93,0.00,OVC,,0.01,WeatherDisplay:10.37,2013-10-18 00:07:00,
2013-10-17 20:12:00,65.7,63.6,29.70,East,90,1.2,1.2,93,0.00,OVC,,0.01,WeatherDisplay:10.37,2013-10-18 00:12:00,
2013-10-17 20:17:00,65.7,63.6,29.70,South,180,3.5,3.5,93,0.00,OVC,,0.01,WeatherDisplay:10.37,2013-10-18 00:17:00,
2013-10-17 20:22:00,65.5,63.4,29.70,SSE,158,2.3,2.3,93,0.00,OVC,,0.01,WeatherDisplay:10.37,2013-10-18 00:22:00,
2013-10-17 20:27:00,65.7,63.6,29.70,SE,135,2.7,2.7,93,0.00,OVC,,0.01,WeatherDisplay:10.37,2013-10-18 00:27:00,
2013-10-17 20:32:00,65.7,63.6,29.70,WNW,292,3.5,3.5,93,0.00,OVC,,0.01,WeatherDisplay:10.37,2013-10-18 00:32:00,
2013-10-17 20:37:00,65.7,63.6,29.70,NE,45,2.3,2.3,93,0.00,OVC,,0.01,WeatherDisplay:10.37,2013-10-18 00:37:00,
2013-10-17 20:42:00,65.8,63.7,29.71,West,270,3.5,3.5,93,0.00,OVC,,0.01,WeatherDisplay:10.37,2013-10-18 00:42:00,
2013-10-17 20:47:00,65.8,63.7,29.71,South,180,5.8,5.8,93,0.00,OVC,,0.01,WeatherDisplay:10.37,2013-10-18 00:47:00,
2013-10-17 20:52:00,66.0,63.9,29.70,SSE,158,2.7,2.7,93,0.00,OVC,,0.01,WeatherDisplay:10.37,2013-10-18 00:52:00,
2013-10-17 20:57:00,66.0,63.9,29.70,NNE,22,4.6,4.6,93,0.00,OVC,,0.01,WeatherDisplay:10.37,2013-10-18 00:57:00,
2013-10-17 21:02:00,66.0,63.9,29.70,SW,225,8.3,8.3,93,0.00,OVC,,0.01,WeatherDisplay:10.37,2013-10-18 01:02:00,
2013-10-17 21:07:00,66.0,63.9,29.70,South,180,4.6,4.6,93,0.00,OVC,,0.01,WeatherDisplay:10.37,2013-10-18 01:07:00,
2013-10-17 21:12:00,66.0,63.9,29.70,East,90,5.8,5.8,93,0.00,OVC,,0.01,WeatherDisplay:10.37,2013-10-18 01:12:00,
2013-10-17 21:17:00,66.0,63.9,29.70,South,180,5.8,5.8,93,0.00,OVC,,0.01,WeatherDisplay:10.37,2013-10-18 01:17:00,
2013-10-17 21:22:00,66.0,63.9,29.70,NNE,22,6.9,6.9,93,0.00,OVC,,0.01,WeatherDisplay:10.37,2013-10-18 01:22:00,
2013-10-17 21:27:00,66.0,63.9,29.70,WSW,248,5.8,5.8,93,0.00,OVC,,0.01,WeatherDisplay:10.37,2013-10-18 01:27:00,
2013-10-17 21:32:00,66.4,64.3,29.70,East,90,4.6,4.6,93,0.00,OVC,,0.01,WeatherDisplay:10.37,2013-10-18 01:32:00,
2013-10-17 21:37:00,66.6,64.5,29.70,SSE,158,7.3,7.3,93,0.00,OVC,,0.01,WeatherDisplay:10.37,2013-10-18 01:37:00,
2013-10-17 21:42:00,66.6,64.5,29.70,SSW,202,8.1,8.1,93,0.00,OVC,,0.01,WeatherDisplay:10.37,2013-10-18 01:42:00,
2013-10-17 21:47:00,65.8,63.7,29.70,SW,225,8.3,8.3,93,0.05,RA,,0.07,WeatherDisplay:10.37,2013-10-18 01:47:00,
2013-10-17 21:52:00,63.1,60.7,29.74,SW,225,5.8,5.8,92,0.08,RA,,0.09,WeatherDisplay:10.37,2013-10-18 01:52:00,
2013-10-17 21:57:00,62.4,60.0,29.74,WSW,248,4.6,4.6,92,0.10,RA,,0.11,WeatherDisplay:10.37,2013-10-18 01:57:00,
2013-10-17 22:02:00,61.7,59.7,29.74,West,270,5.8,5.8,93,0.11,RA,,0.12,WeatherDisplay:10.37,2013-10-18 02:02:00,
2013-10-17 22:07:00,61.5,59.5,29.74,ESE,112,3.2,3.2,93,0.12,RA,,0.13,WeatherDisplay:10.37,2013-10-18 02:07:00,
2013-10-17 22:12:00,61.3,59.6,29.74,SSE,158,4.6,4.6,94,0.12,RA,,0.13,WeatherDisplay:10.37,2013-10-18 02:12:00,
2013-10-17 22:17:00,61.3,59.6,29.75,NNE,22,4.6,4.6,94,0.12,BKN,,0.13,WeatherDisplay:10.37,2013-10-18 02:17:00,
2013-10-17 22:22:00,61.2,59.5,29.75,NNE,22,3.7,3.7,94,0.12,BKN,,0.13,WeatherDisplay:10.37,2013-10-18 02:22:00,
2013-10-17 22:27:00,61.0,59.3,29.75,SSE,158,2.7,2.7,94,0.12,BKN,,0.13,WeatherDisplay:10.37,2013-10-18 02:27:00,
2013-10-17 22:32:00,60.8,59.4,29.75,NNW,338,3.7,3.7,95,0.12,BKN,,0.13,WeatherDisplay:10.37,2013-10-18 02:32:00,
2013-10-17 22:37:00,60.8,59.4,29.75,WSW,248,4.6,4.6,95,0.12,-RA,,0.13,WeatherDisplay:10.37,2013-10-18 02:37:00,
2013-10-17 22:42:00,60.8,59.4,29.76,SW,225,2.3,2.3,95,0.12,-RA,,0.13,WeatherDisplay:10.37,2013-10-18 02:42:00,
2013-10-17 22:47:00,60.8,59.4,29.76,NNW,338,4.7,4.7,95,0.07,-RA,,0.13,WeatherDisplay:10.37,2013-10-18 02:47:00,
2013-10-17 22:52:00,60.8,59.4,29.76,NNE,22,4.6,4.6,95,0.04,-RA,,0.13,WeatherDisplay:10.37,2013-10-18 02:52:00,
2013-10-17 22:57:00,60.8,59.4,29.76,South,180,3.5,3.5,95,0.02,-RA,,0.13,WeatherDisplay:10.37,2013-10-18 02:57:00,
2013-10-17 23:02:00,60.8,59.4,29.76,ESE,112,1.7,1.7,95,0.01,OVC,,0.13,WeatherDisplay:10.37,2013-10-18 03:02:00,
2013-10-17 23:07:00,60.8,59.4,29.76,WNW,292,5.8,5.8,95,0.00,OVC,,0.13,WeatherDisplay:10.37,2013-10-18 03:07:00,
2013-10-17 23:12:00,60.8,59.4,29.76,SSE,158,5.8,5.8,95,0.00,OVC,,0.13,WeatherDisplay:10.37,2013-10-18 03:12:00,
2013-10-17 23:17:00,60.8,59.4,29.77,South,180,3.5,3.5,95,0.00,OVC,,0.13,WeatherDisplay:10.37,2013-10-18 03:17:00,
2013-10-17 23:22:00,60.8,59.4,29.77,North,360,3.5,0.0,95,0.00,OVC,,0.13,WeatherDisplay:10.37,2013-10-18 03:22:00,
2013-10-17 23:27:00,60.4,58.7,29.78,North,360,4.6,4.6,94,0.00,OVC,,0.13,WeatherDisplay:10.37,2013-10-18 03:27:00,
2013-10-17 23:32:00,60.4,58.4,29.78,NNE,22,9.4,9.4,93,0.00,OVC,,0.13,WeatherDisplay:10.37,2013-10-18 03:32:00,
2013-10-17 23:37:00,60.4,58.1,29.78,SE,135,5.8,5.8,92,0.00,OVC,,0.13,WeatherDisplay:10.37,2013-10-18 03:37:00,
2013-10-17 23:42:00,60.4,58.1,29.78,North,360,3.7,4.1,92,0.00,OVC,,0.13,WeatherDisplay:10.37,2013-10-18 03:42:00,
2013-10-17 23:47:00,60.4,58.1,29.78,SW,225,4.6,4.6,92,0.00,OVC,,0.13,WeatherDisplay:10.37,2013-10-18 03:47:00,
2013-10-17 23:52:00,60.3,57.7,29.79,WSW,248,5.8,5.8,91,0.00,OVC,,0.13,WeatherDisplay:10.37,2013-10-18 03:52:00,
2013-10-17 23:57:00,60.3,57.7,29.79,SSW,202,4.2,4.2,91,0.00,OVC,,0.13,WeatherDisplay:10.37,2013-10-18 03:57:00,